sensor_id;sensor_type;location;lat;lon;timestamp;P1;durP1;ratioP1;P2;durP2;ratioP2
23747;SDS011;12054;53.662;10.126;2022-10-30T00:01:55;26.50;;;15.98;;
23747;SDS011;12054;53.662;10.126;2022-10-30T00:04:20;27.33;;;16.13;;
23747;SDS011;12054;53.662;10.126;2022-10-30T00:06:47;29.85;;;17.08;;
23747;SDS011;12054;53.662;10.126;2022-10-30T00:09:13;25.60;;;16.58;;
23747;SDS011;12054;53.662;10.126;2022-10-30T00:11:39;32.72;;;16.17;;
23747;SDS011;12054;53.662;10.126;2022-10-30T00:14:05;26.77;;;15.88;;
23747;SDS011;12054;53.662;10.126;2022-10-30T00:16:32;32.25;;;16.25;;
23747;SDS011;12054;53.662;10.126;2022-10-30T00:18:57;27.33;;;15.57;;
23747;SDS011;12054;53.662;10.126;2022-10-30T00:21:23;29.45;;;16.60;;
23747;SDS011;12054;53.662;10.126;2022-10-30T00:23:50;32.10;;;16.42;;
23747;SDS011;12054;53.662;10.126;2022-10-30T00:26:17;26.38;;;16.30;;
23747;SDS011;12054;53.662;10.126;2022-10-30T00:28:43;26.55;;;16.17;;
23747;SDS011;12054;53.662;10.126;2022-10-30T00:31:12;26.92;;;16.65;;
23747;SDS011;12054;53.662;10.126;2022-10-30T00:33:38;24.92;;;15.40;;
23747;SDS011;12054;53.662;10.126;2022-10-30T00:36:03;29.00;;;16.10;;
23747;SDS011;12054;53.662;10.126;2022-10-30T00:38:30;29.63;;;16.63;;
23747;SDS011;12054;53.662;10.126;2022-10-30T00:40:55;26.05;;;15.40;;
23747;SDS011;12054;53.662;10.126;2022-10-30T00:43:32;29.88;;;15.80;;
23747;SDS011;12054;53.662;10.126;2022-10-30T00:46:01;23.83;;;15.38;;
23747;SDS011;12054;53.662;10.126;2022-10-30T00:48:32;26.45;;;15.30;;
23747;SDS011;12054;53.662;10.126;2022-10-30T00:50:58;27.92;;;15.50;;
23747;SDS011;12054;53.662;10.126;2022-10-30T00:53:26;29.10;;;14.77;;
23747;SDS011;12054;53.662;10.126;2022-10-30T00:55:54;29.80;;;15.30;;
23747;SDS011;12054;53.662;10.126;2022-10-30T00:58:25;26.60;;;15.35;;
23747;SDS011;12054;53.662;10.126;2022-10-30T01:00:56;27.13;;;14.80;;
23747;SDS011;12054;53.662;10.126;2022-10-30T01:03:23;29.92;;;14.50;;
23747;SDS011;12054;53.662;10.126;2022-10-30T01:05:51;23.98;;;14.63;;
23747;SDS011;12054;53.662;10.126;2022-10-30T01:08:20;24.25;;;14.93;;
23747;SDS011;12054;53.662;10.126;2022-10-30T01:10:46;23.98;;;14.82;;
23747;SDS011;12054;53.662;10.126;2022-10-30T01:13:13;27.95;;;14.40;;
23747;SDS011;12054;53.662;10.126;2022-10-30T01:15:41;24.17;;;14.45;;
23747;SDS011;12054;53.662;10.126;2022-10-30T01:18:30;26.50;;;14.52;;
23747;SDS011;12054;53.662;10.126;2022-10-30T01:29:24;24.65;;;14.93;;
23747;SDS011;12054;53.662;10.126;2022-10-30T01:32:18;20.88;;;11.75;;
23747;SDS011;12054;53.662;10.126;2022-10-30T01:35:09;24.58;;;12.25;;
23747;SDS011;12054;53.662;10.126;2022-10-30T01:40:33;20.88;;;13.25;;
23747;SDS011;12054;53.662;10.126;2022-10-30T01:42:58;20.77;;;12.18;;
23747;SDS011;12054;53.662;10.126;2022-10-30T01:45:44;24.67;;;13.57;;
23747;SDS011;12054;53.662;10.126;2022-10-30T01:51:30;25.35;;;14.23;;
23747;SDS011;12054;53.662;10.126;2022-10-30T01:54:16;27.60;;;13.30;;
23747;SDS011;12054;53.662;10.126;2022-10-30T01:56:57;21.33;;;12.60;;
23747;SDS011;12054;53.662;10.126;2022-10-30T01:59:55;20.65;;;13.40;;
23747;SDS011;12054;53.662;10.126;2022-10-30T02:02:25;22.38;;;12.35;;
23747;SDS011;12054;53.662;10.126;2022-10-30T02:04:51;23.80;;;11.98;;
23747;SDS011;12054;53.662;10.126;2022-10-30T02:07:17;21.85;;;12.30;;
23747;SDS011;12054;53.662;10.126;2022-10-30T02:09:43;23.38;;;13.13;;
23747;SDS011;12054;53.662;10.126;2022-10-30T02:12:08;21.92;;;12.60;;
23747;SDS011;12054;53.662;10.126;2022-10-30T02:14:36;21.05;;;11.95;;
23747;SDS011;12054;53.662;10.126;2022-10-30T02:17:05;23.30;;;12.23;;
23747;SDS011;12054;53.662;10.126;2022-10-30T02:19:32;22.45;;;12.65;;
23747;SDS011;12054;53.662;10.126;2022-10-30T02:21:58;26.58;;;12.80;;
23747;SDS011;12054;53.662;10.126;2022-10-30T02:24:23;24.23;;;13.15;;
23747;SDS011;12054;53.662;10.126;2022-10-30T02:26:49;22.48;;;11.90;;
23747;SDS011;12054;53.662;10.126;2022-10-30T02:29:14;19.40;;;12.35;;
23747;SDS011;12054;53.662;10.126;2022-10-30T02:31:42;20.50;;;12.60;;
23747;SDS011;12054;53.662;10.126;2022-10-30T02:34:08;22.95;;;13.25;;
23747;SDS011;12054;53.662;10.126;2022-10-30T02:36:33;21.60;;;11.98;;
23747;SDS011;12054;53.662;10.126;2022-10-30T02:38:59;21.90;;;12.40;;
23747;SDS011;12054;53.662;10.126;2022-10-30T02:41:24;19.25;;;11.73;;
23747;SDS011;12054;53.662;10.126;2022-10-30T02:43:50;20.30;;;11.32;;
23747;SDS011;12054;53.662;10.126;2022-10-30T02:46:17;24.25;;;12.98;;
23747;SDS011;12054;53.662;10.126;2022-10-30T02:48:43;24.25;;;12.68;;
23747;SDS011;12054;53.662;10.126;2022-10-30T02:51:08;26.20;;;12.77;;
23747;SDS011;12054;53.662;10.126;2022-10-30T02:53:34;19.40;;;11.93;;
23747;SDS011;12054;53.662;10.126;2022-10-30T02:56:06;17.75;;;11.50;;
23747;SDS011;12054;53.662;10.126;2022-10-30T02:58:33;16.48;;;11.05;;
23747;SDS011;12054;53.662;10.126;2022-10-30T03:01:08;18.05;;;11.07;;
23747;SDS011;12054;53.662;10.126;2022-10-30T03:03:36;20.02;;;12.43;;
23747;SDS011;12054;53.662;10.126;2022-10-30T03:06:03;20.80;;;11.38;;
23747;SDS011;12054;53.662;10.126;2022-10-30T03:08:29;16.48;;;11.20;;
23747;SDS011;12054;53.662;10.126;2022-10-30T03:10:59;21.40;;;12.15;;
23747;SDS011;12054;53.662;10.126;2022-10-30T03:13:26;17.52;;;11.63;;
23747;SDS011;12054;53.662;10.126;2022-10-30T03:15:57;19.65;;;10.93;;
23747;SDS011;12054;53.662;10.126;2022-10-30T03:18:24;20.77;;;12.23;;
23747;SDS011;12054;53.662;10.126;2022-10-30T03:20:49;17.73;;;11.40;;
23747;SDS011;12054;53.662;10.126;2022-10-30T03:23:14;17.58;;;11.65;;
23747;SDS011;12054;53.662;10.126;2022-10-30T03:25:40;19.83;;;11.25;;
23747;SDS011;12054;53.662;10.126;2022-10-30T03:28:05;20.33;;;11.40;;
23747;SDS011;12054;53.662;10.126;2022-10-30T03:30:31;21.15;;;11.43;;
23747;SDS011;12054;53.662;10.126;2022-10-30T03:32:57;19.15;;;11.07;;
23747;SDS011;12054;53.662;10.126;2022-10-30T03:35:23;16.02;;;10.80;;
23747;SDS011;12054;53.662;10.126;2022-10-30T03:37:48;19.17;;;11.77;;
23747;SDS011;12054;53.662;10.126;2022-10-30T03:40:14;19.55;;;10.40;;
23747;SDS011;12054;53.662;10.126;2022-10-30T03:42:39;17.70;;;10.30;;
23747;SDS011;12054;53.662;10.126;2022-10-30T03:45:05;19.60;;;10.48;;
23747;SDS011;12054;53.662;10.126;2022-10-30T03:47:31;15.85;;;10.88;;
23747;SDS011;12054;53.662;10.126;2022-10-30T03:49:56;18.17;;;11.52;;
23747;SDS011;12054;53.662;10.126;2022-10-30T03:52:22;18.73;;;11.07;;
23747;SDS011;12054;53.662;10.126;2022-10-30T03:54:47;18.27;;;10.85;;
23747;SDS011;12054;53.662;10.126;2022-10-30T03:57:13;20.15;;;10.63;;
23747;SDS011;12054;53.662;10.126;2022-10-30T03:59:38;17.95;;;10.60;;
23747;SDS011;12054;53.662;10.126;2022-10-30T04:02:04;18.60;;;10.43;;
23747;SDS011;12054;53.662;10.126;2022-10-30T04:04:29;15.73;;;10.25;;
23747;SDS011;12054;53.662;10.126;2022-10-30T04:06:55;19.88;;;10.95;;
23747;SDS011;12054;53.662;10.126;2022-10-30T04:09:20;16.88;;;10.20;;
23747;SDS011;12054;53.662;10.126;2022-10-30T04:11:46;17.42;;;10.55;;
23747;SDS011;12054;53.662;10.126;2022-10-30T04:14:11;17.15;;;10.90;;
23747;SDS011;12054;53.662;10.126;2022-10-30T04:16:37;21.00;;;10.98;;
23747;SDS011;12054;53.662;10.126;2022-10-30T04:19:02;18.00;;;11.00;;
23747;SDS011;12054;53.662;10.126;2022-10-30T04:21:28;18.98;;;11.35;;
23747;SDS011;12054;53.662;10.126;2022-10-30T04:23:53;18.35;;;10.55;;
23747;SDS011;12054;53.662;10.126;2022-10-30T04:26:18;18.55;;;10.00;;
23747;SDS011;12054;53.662;10.126;2022-10-30T04:28:46;19.70;;;10.20;;
23747;SDS011;12054;53.662;10.126;2022-10-30T04:31:12;24.95;;;10.95;;
23747;SDS011;12054;53.662;10.126;2022-10-30T04:33:37;22.02;;;11.00;;
23747;SDS011;12054;53.662;10.126;2022-10-30T04:36:03;20.83;;;10.85;;
23747;SDS011;12054;53.662;10.126;2022-10-30T04:38:28;18.50;;;10.93;;
23747;SDS011;12054;53.662;10.126;2022-10-30T04:40:54;21.13;;;12.50;;
23747;SDS011;12054;53.662;10.126;2022-10-30T04:43:19;21.42;;;11.52;;
23747;SDS011;12054;53.662;10.126;2022-10-30T04:45:45;17.67;;;11.07;;
23747;SDS011;12054;53.662;10.126;2022-10-30T04:48:15;20.42;;;11.27;;
23747;SDS011;12054;53.662;10.126;2022-10-30T04:50:41;19.33;;;10.65;;
23747;SDS011;12054;53.662;10.126;2022-10-30T04:53:12;18.00;;;10.45;;
23747;SDS011;12054;53.662;10.126;2022-10-30T04:55:39;21.27;;;10.98;;
23747;SDS011;12054;53.662;10.126;2022-10-30T04:58:05;19.05;;;11.15;;
23747;SDS011;12054;53.662;10.126;2022-10-30T05:00:32;19.40;;;11.23;;
23747;SDS011;12054;53.662;10.126;2022-10-30T05:02:58;25.95;;;12.60;;
23747;SDS011;12054;53.662;10.126;2022-10-30T05:05:25;23.60;;;13.38;;
23747;SDS011;12054;53.662;10.126;2022-10-30T05:07:51;19.10;;;11.63;;
23747;SDS011;12054;53.662;10.126;2022-10-30T05:10:16;20.42;;;10.98;;
23747;SDS011;12054;53.662;10.126;2022-10-30T05:12:42;18.40;;;11.00;;
23747;SDS011;12054;53.662;10.126;2022-10-30T05:15:09;21.00;;;11.27;;
23747;SDS011;12054;53.662;10.126;2022-10-30T05:17:36;19.05;;;10.75;;
23747;SDS011;12054;53.662;10.126;2022-10-30T05:20:03;23.05;;;10.75;;
23747;SDS011;12054;53.662;10.126;2022-10-30T05:22:29;16.83;;;10.30;;
23747;SDS011;12054;53.662;10.126;2022-10-30T05:24:55;19.65;;;10.40;;
23747;SDS011;12054;53.662;10.126;2022-10-30T05:27:20;18.15;;;10.73;;
23747;SDS011;12054;53.662;10.126;2022-10-30T05:29:46;17.38;;;10.23;;
23747;SDS011;12054;53.662;10.126;2022-10-30T05:32:11;20.92;;;10.55;;
23747;SDS011;12054;53.662;10.126;2022-10-30T05:34:37;17.20;;;10.27;;
23747;SDS011;12054;53.662;10.126;2022-10-30T05:37:02;14.18;;;9.68;;
23747;SDS011;12054;53.662;10.126;2022-10-30T05:39:28;20.35;;;10.60;;
23747;SDS011;12054;53.662;10.126;2022-10-30T05:41:53;17.02;;;10.65;;
23747;SDS011;12054;53.662;10.126;2022-10-30T05:44:19;20.27;;;11.38;;
23747;SDS011;12054;53.662;10.126;2022-10-30T05:46:44;18.52;;;11.23;;
23747;SDS011;12054;53.662;10.126;2022-10-30T05:49:10;15.65;;;9.98;;
23747;SDS011;12054;53.662;10.126;2022-10-30T05:51:35;19.63;;;10.30;;
23747;SDS011;12054;53.662;10.126;2022-10-30T05:54:01;17.33;;;10.70;;
23747;SDS011;12054;53.662;10.126;2022-10-30T05:56:26;20.42;;;10.90;;
23747;SDS011;12054;53.662;10.126;2022-10-30T05:58:52;15.45;;;9.57;;
23747;SDS011;12054;53.662;10.126;2022-10-30T06:01:17;14.88;;;10.13;;
23747;SDS011;12054;53.662;10.126;2022-10-30T06:03:43;18.00;;;9.93;;
23747;SDS011;12054;53.662;10.126;2022-10-30T06:06:09;17.27;;;10.25;;
23747;SDS011;12054;53.662;10.126;2022-10-30T06:08:34;17.30;;;10.52;;
23747;SDS011;12054;53.662;10.126;2022-10-30T06:11:00;16.70;;;10.48;;
23747;SDS011;12054;53.662;10.126;2022-10-30T06:13:25;20.13;;;10.57;;
23747;SDS011;12054;53.662;10.126;2022-10-30T06:15:53;19.08;;;10.90;;
23747;SDS011;12054;53.662;10.126;2022-10-30T06:18:20;16.83;;;10.63;;
23747;SDS011;12054;53.662;10.126;2022-10-30T06:20:45;15.90;;;11.20;;
23747;SDS011;12054;53.662;10.126;2022-10-30T06:23:11;21.30;;;11.15;;
23747;SDS011;12054;53.662;10.126;2022-10-30T06:25:36;19.80;;;11.25;;
23747;SDS011;12054;53.662;10.126;2022-10-30T06:28:02;18.25;;;10.77;;
23747;SDS011;12054;53.662;10.126;2022-10-30T06:30:28;17.92;;;10.55;;
23747;SDS011;12054;53.662;10.126;2022-10-30T06:33:00;17.58;;;10.55;;
23747;SDS011;12054;53.662;10.126;2022-10-30T06:35:26;18.40;;;10.52;;
23747;SDS011;12054;53.662;10.126;2022-10-30T06:37:52;17.90;;;10.25;;
23747;SDS011;12054;53.662;10.126;2022-10-30T06:40:20;19.48;;;11.15;;
23747;SDS011;12054;53.662;10.126;2022-10-30T06:42:49;19.98;;;11.63;;
23747;SDS011;12054;53.662;10.126;2022-10-30T06:45:16;19.58;;;11.77;;
23747;SDS011;12054;53.662;10.126;2022-10-30T06:47:43;19.20;;;11.52;;
23747;SDS011;12054;53.662;10.126;2022-10-30T06:50:10;15.82;;;11.10;;
23747;SDS011;12054;53.662;10.126;2022-10-30T06:52:37;15.25;;;11.48;;
23747;SDS011;12054;53.662;10.126;2022-10-30T06:55:03;19.17;;;11.10;;
23747;SDS011;12054;53.662;10.126;2022-10-30T06:57:29;21.80;;;11.50;;
23747;SDS011;12054;53.662;10.126;2022-10-30T06:59:55;19.25;;;11.20;;
23747;SDS011;12054;53.662;10.126;2022-10-30T07:02:20;21.05;;;11.23;;
23747;SDS011;12054;53.662;10.126;2022-10-30T07:04:46;15.30;;;10.75;;
23747;SDS011;12054;53.662;10.126;2022-10-30T07:07:15;18.55;;;10.35;;
23747;SDS011;12054;53.662;10.126;2022-10-30T07:09:41;15.75;;;11.00;;
23747;SDS011;12054;53.662;10.126;2022-10-30T07:12:07;17.42;;;11.10;;
23747;SDS011;12054;53.662;10.126;2022-10-30T07:14:33;23.88;;;11.02;;
23747;SDS011;12054;53.662;10.126;2022-10-30T07:16:59;18.98;;;10.40;;
23747;SDS011;12054;53.662;10.126;2022-10-30T07:19:25;17.48;;;9.85;;
23747;SDS011;12054;53.662;10.126;2022-10-30T07:21:51;19.13;;;11.85;;
23747;SDS011;12054;53.662;10.126;2022-10-30T07:24:16;17.45;;;10.60;;
23747;SDS011;12054;53.662;10.126;2022-10-30T07:26:42;17.75;;;9.98;;
23747;SDS011;12054;53.662;10.126;2022-10-30T07:29:07;17.67;;;10.13;;
23747;SDS011;12054;53.662;10.126;2022-10-30T07:31:33;15.55;;;10.93;;
23747;SDS011;12054;53.662;10.126;2022-10-30T07:33:58;17.35;;;10.50;;
23747;SDS011;12054;53.662;10.126;2022-10-30T07:36:24;21.23;;;10.60;;
23747;SDS011;12054;53.662;10.126;2022-10-30T07:38:50;18.77;;;11.00;;
23747;SDS011;12054;53.662;10.126;2022-10-30T07:41:16;17.58;;;10.27;;
23747;SDS011;12054;53.662;10.126;2022-10-30T07:43:43;23.95;;;11.07;;
23747;SDS011;12054;53.662;10.126;2022-10-30T07:46:08;17.80;;;10.63;;
23747;SDS011;12054;53.662;10.126;2022-10-30T07:48:34;15.82;;;11.05;;
23747;SDS011;12054;53.662;10.126;2022-10-30T07:51:00;18.70;;;11.27;;
23747;SDS011;12054;53.662;10.126;2022-10-30T07:53:25;16.83;;;10.45;;
23747;SDS011;12054;53.662;10.126;2022-10-30T07:55:51;17.42;;;9.88;;
23747;SDS011;12054;53.662;10.126;2022-10-30T07:58:17;15.35;;;10.07;;
23747;SDS011;12054;53.662;10.126;2022-10-30T08:00:42;15.43;;;9.65;;
23747;SDS011;12054;53.662;10.126;2022-10-30T08:03:08;16.08;;;9.85;;
23747;SDS011;12054;53.662;10.126;2022-10-30T08:05:34;15.40;;;9.00;;
23747;SDS011;12054;53.662;10.126;2022-10-30T08:08:00;17.00;;;8.85;;
23747;SDS011;12054;53.662;10.126;2022-10-30T08:10:26;15.13;;;9.25;;
23747;SDS011;12054;53.662;10.126;2022-10-30T08:12:52;16.10;;;8.52;;
23747;SDS011;12054;53.662;10.126;2022-10-30T08:15:18;15.55;;;9.13;;
23747;SDS011;12054;53.662;10.126;2022-10-30T08:17:45;15.15;;;8.70;;
23747;SDS011;12054;53.662;10.126;2022-10-30T08:20:12;17.25;;;9.10;;
23747;SDS011;12054;53.662;10.126;2022-10-30T08:22:43;16.50;;;9.07;;
23747;SDS011;12054;53.662;10.126;2022-10-30T08:25:09;17.00;;;9.40;;
23747;SDS011;12054;53.662;10.126;2022-10-30T08:27:34;18.05;;;10.15;;
23747;SDS011;12054;53.662;10.126;2022-10-30T08:30:00;18.05;;;9.60;;
23747;SDS011;12054;53.662;10.126;2022-10-30T08:32:25;18.98;;;9.93;;
23747;SDS011;12054;53.662;10.126;2022-10-30T08:34:51;16.52;;;9.48;;
23747;SDS011;12054;53.662;10.126;2022-10-30T08:37:16;18.63;;;10.30;;
23747;SDS011;12054;53.662;10.126;2022-10-30T08:39:42;19.80;;;11.02;;
23747;SDS011;12054;53.662;10.126;2022-10-30T08:42:07;17.17;;;9.77;;
23747;SDS011;12054;53.662;10.126;2022-10-30T08:44:33;15.80;;;9.68;;
23747;SDS011;12054;53.662;10.126;2022-10-30T08:46:58;15.38;;;9.27;;
23747;SDS011;12054;53.662;10.126;2022-10-30T08:49:24;18.17;;;10.48;;
23747;SDS011;12054;53.662;10.126;2022-10-30T08:51:49;15.82;;;9.38;;
23747;SDS011;12054;53.662;10.126;2022-10-30T08:54:15;20.40;;;10.20;;
23747;SDS011;12054;53.662;10.126;2022-10-30T08:56:40;17.98;;;10.45;;
23747;SDS011;12054;53.662;10.126;2022-10-30T08:59:06;15.20;;;10.23;;
23747;SDS011;12054;53.662;10.126;2022-10-30T09:01:31;17.75;;;10.55;;
23747;SDS011;12054;53.662;10.126;2022-10-30T09:03:57;17.48;;;9.80;;
23747;SDS011;12054;53.662;10.126;2022-10-30T09:06:22;17.75;;;9.80;;
23747;SDS011;12054;53.662;10.126;2022-10-30T09:08:48;17.90;;;9.40;;
23747;SDS011;12054;53.662;10.126;2022-10-30T09:11:13;11.63;;;8.80;;
23747;SDS011;12054;53.662;10.126;2022-10-30T09:13:41;14.75;;;9.77;;
23747;SDS011;12054;53.662;10.126;2022-10-30T09:16:06;17.40;;;8.98;;
23747;SDS011;12054;53.662;10.126;2022-10-30T09:18:32;16.67;;;9.23;;
23747;SDS011;12054;53.662;10.126;2022-10-30T09:20:57;16.77;;;9.50;;
23747;SDS011;12054;53.662;10.126;2022-10-30T09:23:23;15.30;;;8.85;;
23747;SDS011;12054;53.662;10.126;2022-10-30T09:25:48;19.98;;;9.60;;
23747;SDS011;12054;53.662;10.126;2022-10-30T09:28:14;16.08;;;9.10;;
23747;SDS011;12054;53.662;10.126;2022-10-30T09:30:39;15.60;;;8.77;;
23747;SDS011;12054;53.662;10.126;2022-10-30T09:33:05;14.75;;;8.48;;
23747;SDS011;12054;53.662;10.126;2022-10-30T09:35:30;20.15;;;9.60;;
23747;SDS011;12054;53.662;10.126;2022-10-30T09:37:56;18.75;;;9.23;;
23747;SDS011;12054;53.662;10.126;2022-10-30T09:43:22;15.38;;;8.00;;
23747;SDS011;12054;53.662;10.126;2022-10-30T09:46:08;19.23;;;8.77;;
23747;SDS011;12054;53.662;10.126;2022-10-30T09:49:09;16.95;;;9.00;;
23747;SDS011;12054;53.662;10.126;2022-10-30T09:51:55;19.45;;;8.43;;
23747;SDS011;12054;53.662;10.126;2022-10-30T09:54:42;18.42;;;8.45;;
23747;SDS011;12054;53.662;10.126;2022-10-30T09:57:14;18.55;;;9.25;;
23747;SDS011;12054;53.662;10.126;2022-10-30T10:00:22;17.02;;;8.68;;
23747;SDS011;12054;53.662;10.126;2022-10-30T10:02:49;18.92;;;9.07;;
23747;SDS011;12054;53.662;10.126;2022-10-30T10:05:26;17.90;;;8.90;;
23747;SDS011;12054;53.662;10.126;2022-10-30T10:08:00;17.75;;;8.20;;
23747;SDS011;12054;53.662;10.126;2022-10-30T10:10:45;18.73;;;9.15;;
23747;SDS011;12054;53.662;10.126;2022-10-30T10:16:05;19.70;;;9.48;;
23747;SDS011;12054;53.662;10.126;2022-10-30T10:19:03;18.25;;;8.48;;
23747;SDS011;12054;53.662;10.126;2022-10-30T10:21:41;17.95;;;8.52;;
23747;SDS011;12054;53.662;10.126;2022-10-30T10:24:13;21.45;;;9.55;;
23747;SDS011;12054;53.662;10.126;2022-10-30T10:26:49;13.80;;;8.27;;
23747;SDS011;12054;53.662;10.126;2022-10-30T10:37:37;15.93;;;8.70;;
23747;SDS011;12054;53.662;10.126;2022-10-30T10:40:27;17.80;;;8.50;;
23747;SDS011;12054;53.662;10.126;2022-10-30T10:49:07;16.50;;;8.38;;
23747;SDS011;12054;53.662;10.126;2022-10-30T10:52:15;19.73;;;8.68;;
23747;SDS011;12054;53.662;10.126;2022-10-30T10:54:51;16.08;;;7.70;;
23747;SDS011;12054;53.662;10.126;2022-10-30T10:57:25;15.75;;;7.70;;
23747;SDS011;12054;53.662;10.126;2022-10-30T10:59:59;13.55;;;7.80;;
23747;SDS011;12054;53.662;10.126;2022-10-30T11:08:03;15.35;;;8.25;;
23747;SDS011;12054;53.662;10.126;2022-10-30T11:10:59;13.90;;;7.60;;
23747;SDS011;12054;53.662;10.126;2022-10-30T11:13:28;13.75;;;8.00;;
23747;SDS011;12054;53.662;10.126;2022-10-30T11:18:58;17.30;;;8.20;;
23747;SDS011;12054;53.662;10.126;2022-10-30T11:21:26;12.55;;;7.80;;
23747;SDS011;12054;53.662;10.126;2022-10-30T11:23:56;16.85;;;8.15;;
23747;SDS011;12054;53.662;10.126;2022-10-30T11:26:24;15.15;;;7.40;;
23747;SDS011;12054;53.662;10.126;2022-10-30T11:31:38;13.73;;;8.02;;
23747;SDS011;12054;53.662;10.126;2022-10-30T11:34:38;18.08;;;7.93;;
23747;SDS011;12054;53.662;10.126;2022-10-30T11:36:58;14.07;;;7.40;;
23747;SDS011;12054;53.662;10.126;2022-10-30T11:39:33;16.95;;;8.52;;
23747;SDS011;12054;53.662;10.126;2022-10-30T11:42:01;16.55;;;7.80;;
23747;SDS011;12054;53.662;10.126;2022-10-30T11:44:36;14.05;;;7.65;;
23747;SDS011;12054;53.662;10.126;2022-10-30T11:47:06;18.13;;;7.35;;
23747;SDS011;12054;53.662;10.126;2022-10-30T11:50:20;19.55;;;8.43;;
23747;SDS011;12054;53.662;10.126;2022-10-30T11:52:24;16.70;;;7.97;;
23747;SDS011;12054;53.662;10.126;2022-10-30T11:54:57;16.17;;;7.82;;
23747;SDS011;12054;53.662;10.126;2022-10-30T11:57:43;16.38;;;7.85;;
23747;SDS011;12054;53.662;10.126;2022-10-30T12:00:21;16.70;;;7.38;;
23747;SDS011;12054;53.662;10.126;2022-10-30T12:02:50;13.60;;;7.43;;
23747;SDS011;12054;53.662;10.126;2022-10-30T12:05:32;14.25;;;7.63;;
23747;SDS011;12054;53.662;10.126;2022-10-30T12:10:31;16.85;;;8.45;;
23747;SDS011;12054;53.662;10.126;2022-10-30T12:13:02;12.82;;;7.57;;
23747;SDS011;12054;53.662;10.126;2022-10-30T12:15:29;14.77;;;7.53;;
23747;SDS011;12054;53.662;10.126;2022-10-30T12:18:01;14.10;;;7.65;;
23747;SDS011;12054;53.662;10.126;2022-10-30T12:20:29;14.18;;;7.50;;
23747;SDS011;12054;53.662;10.126;2022-10-30T12:22:56;13.32;;;7.30;;
23747;SDS011;12054;53.662;10.126;2022-10-30T12:27:59;16.40;;;7.15;;
23747;SDS011;12054;53.662;10.126;2022-10-30T12:30:29;18.08;;;7.82;;
23747;SDS011;12054;53.662;10.126;2022-10-30T12:32:59;12.98;;;7.60;;
23747;SDS011;12054;53.662;10.126;2022-10-30T12:38:24;17.13;;;7.97;;
23747;SDS011;12054;53.662;10.126;2022-10-30T12:44:02;15.10;;;7.88;;
23747;SDS011;12054;53.662;10.126;2022-10-30T12:46:50;15.23;;;7.45;;
23747;SDS011;12054;53.662;10.126;2022-10-30T12:51:57;17.02;;;8.05;;
23747;SDS011;12054;53.662;10.126;2022-10-30T12:54:38;12.57;;;7.18;;
23747;SDS011;12054;53.662;10.126;2022-10-30T12:57:19;14.82;;;7.25;;
23747;SDS011;12054;53.662;10.126;2022-10-30T13:00:00;17.35;;;8.07;;
23747;SDS011;12054;53.662;10.126;2022-10-30T13:05:31;16.35;;;6.85;;
23747;SDS011;12054;53.662;10.126;2022-10-30T13:10:45;15.65;;;7.22;;
23747;SDS011;12054;53.662;10.126;2022-10-30T13:13:20;15.95;;;7.25;;
23747;SDS011;12054;53.662;10.126;2022-10-30T13:15:57;18.20;;;7.53;;
23747;SDS011;12054;53.662;10.126;2022-10-30T13:18:26;13.18;;;6.90;;
23747;SDS011;12054;53.662;10.126;2022-10-30T13:23:38;13.63;;;6.90;;
23747;SDS011;12054;53.662;10.126;2022-10-30T13:29:16;18.38;;;7.22;;
23747;SDS011;12054;53.662;10.126;2022-10-30T13:38:12;15.70;;;7.43;;
23747;SDS011;12054;53.662;10.126;2022-10-30T13:40:59;17.42;;;7.80;;
23747;SDS011;12054;53.662;10.126;2022-10-30T13:46:45;13.48;;;7.50;;
23747;SDS011;12054;53.662;10.126;2022-10-30T13:52:30;14.52;;;7.82;;
23747;SDS011;12054;53.662;10.126;2022-10-30T13:57:36;16.70;;;7.85;;
23747;SDS011;12054;53.662;10.126;2022-10-30T14:00:20;16.98;;;7.88;;
23747;SDS011;12054;53.662;10.126;2022-10-30T14:03:01;20.80;;;8.15;;
23747;SDS011;12054;53.662;10.126;2022-10-30T14:05:37;16.67;;;7.53;;
23747;SDS011;12054;53.662;10.126;2022-10-30T14:08:09;13.70;;;8.40;;
23747;SDS011;12054;53.662;10.126;2022-10-30T14:10:51;18.42;;;7.45;;
23747;SDS011;12054;53.662;10.126;2022-10-30T14:16:29;17.35;;;7.82;;
23747;SDS011;12054;53.662;10.126;2022-10-30T14:18:59;17.00;;;7.72;;
23747;SDS011;12054;53.662;10.126;2022-10-30T14:24:09;14.82;;;7.03;;
23747;SDS011;12054;53.662;10.126;2022-10-30T14:27:08;13.23;;;7.50;;
23747;SDS011;12054;53.662;10.126;2022-10-30T14:29:43;14.25;;;7.43;;
23747;SDS011;12054;53.662;10.126;2022-10-30T14:34:42;14.00;;;7.43;;
23747;SDS011;12054;53.662;10.126;2022-10-30T14:37:08;15.93;;;7.55;;
23747;SDS011;12054;53.662;10.126;2022-10-30T14:39:41;13.15;;;7.32;;
23747;SDS011;12054;53.662;10.126;2022-10-30T14:45:22;16.30;;;7.10;;
23747;SDS011;12054;53.662;10.126;2022-10-30T14:50:58;11.65;;;6.90;;
23747;SDS011;12054;53.662;10.126;2022-10-30T14:53:43;16.38;;;7.20;;
23747;SDS011;12054;53.662;10.126;2022-10-30T14:58:41;14.25;;;7.13;;
23747;SDS011;12054;53.662;10.126;2022-10-30T15:09:56;12.57;;;7.38;;
23747;SDS011;12054;53.662;10.126;2022-10-30T15:12:30;17.05;;;7.05;;
23747;SDS011;12054;53.662;10.126;2022-10-30T15:15:01;17.35;;;8.02;;
23747;SDS011;12054;53.662;10.126;2022-10-30T15:17:48;15.90;;;7.65;;
23747;SDS011;12054;53.662;10.126;2022-10-30T15:20:34;15.43;;;7.45;;
23747;SDS011;12054;53.662;10.126;2022-10-30T15:23:03;12.65;;;7.00;;
23747;SDS011;12054;53.662;10.126;2022-10-30T15:25:44;14.52;;;7.10;;
23747;SDS011;12054;53.662;10.126;2022-10-30T15:28:19;12.82;;;7.03;;
23747;SDS011;12054;53.662;10.126;2022-10-30T15:31:04;12.80;;;7.57;;
23747;SDS011;12054;53.662;10.126;2022-10-30T15:33:41;10.77;;;7.15;;
23747;SDS011;12054;53.662;10.126;2022-10-30T15:36:21;16.33;;;8.00;;
23747;SDS011;12054;53.662;10.126;2022-10-30T15:41:32;16.50;;;7.72;;
23747;SDS011;12054;53.662;10.126;2022-10-30T15:44:03;14.55;;;6.90;;
23747;SDS011;12054;53.662;10.126;2022-10-30T15:46:29;13.52;;;7.38;;
23747;SDS011;12054;53.662;10.126;2022-10-30T15:48:55;16.02;;;7.25;;
23747;SDS011;12054;53.662;10.126;2022-10-30T15:51:21;14.48;;;6.93;;
23747;SDS011;12054;53.662;10.126;2022-10-30T15:56:17;28.45;;;14.32;;
23747;SDS011;12054;53.662;10.126;2022-10-30T15:58:49;31.67;;;13.80;;
23747;SDS011;12054;53.662;10.126;2022-10-30T16:01:25;22.35;;;11.45;;
23747;SDS011;12054;53.662;10.126;2022-10-30T16:03:53;21.30;;;12.32;;
23747;SDS011;12054;53.662;10.126;2022-10-30T16:06:19;19.05;;;10.43;;
23747;SDS011;12054;53.662;10.126;2022-10-30T16:08:56;15.95;;;10.60;;
23747;SDS011;12054;53.662;10.126;2022-10-30T16:11:23;21.25;;;10.43;;
23747;SDS011;12054;53.662;10.126;2022-10-30T16:13:50;18.15;;;9.55;;
23747;SDS011;12054;53.662;10.126;2022-10-30T16:16:26;19.35;;;10.60;;
23747;SDS011;12054;53.662;10.126;2022-10-30T16:18:57;15.57;;;9.60;;
23747;SDS011;12054;53.662;10.126;2022-10-30T16:21:25;19.42;;;9.75;;
23747;SDS011;12054;53.662;10.126;2022-10-30T16:23:56;15.60;;;9.05;;
23747;SDS011;12054;53.662;10.126;2022-10-30T16:26:27;14.55;;;7.35;;